N6TQ SUPE-SUTR
Flight info
| Callsign | N6TQ |
|---|---|
| Flight time | 1h 12m |
| Altitude | 3500 |
| Route | DCT |
| Aircraft | PA36/L-V/N |
Departure
| Time | 2026-04-27 13:05 |
|---|---|
| Airport | El Jagüel / Punta del Este Airport (SUPE) |
Arrival
| Time | 2026-04-27 14:18 |
|---|---|
| Airport | Treinta y Tres Airport (SUTR) |
| Time | Latitude | Longitude | Altitude | Speed | Heading |
|---|---|---|---|---|---|
| 2026-04-27 12:38 | -34.91457 | -54.91864 | 55 ft | 0 kts | 113° |
| 2026-04-27 12:39 | -34.91426 | -54.91863 | 52 ft | 0 kts | 98° |
| 2026-04-27 12:44 | -34.91417 | -54.91853 | 54 ft | 8 kts | 8° |
| 2026-04-27 12:44 | -34.91364 | -54.91916 | 53 ft | 13 kts | 280° |
| 2026-04-27 12:45 | -34.91358 | -54.92004 | 52 ft | 10 kts | 274° |
| 2026-04-27 12:45 | -34.91402 | -54.92050 | 49 ft | 10 kts | 181° |
| 2026-04-27 12:45 | -34.91463 | -54.92053 | 50 ft | 7 kts | 180° |
| 2026-04-27 12:45 | -34.91471 | -54.92064 | 52 ft | 3 kts | 322° |
| 2026-04-27 12:46 | -34.91430 | -54.92059 | 49 ft | 19 kts | 5° |
| 2026-04-27 12:46 | -34.91091 | -54.92029 | 53 ft | 73 kts | 5° |
| 2026-04-27 12:46 | -34.90589 | -54.91905 | 262 ft | 75 kts | 25° |
| 2026-04-27 12:46 | -34.90093 | -54.91566 | 425 ft | 86 kts | 33° |
| 2026-04-27 12:47 | -34.90040 | -54.91524 | 446 ft | 86 kts | 33° |
| 2026-04-27 13:05 | -34.89689 | -54.91248 | 638 ft | 82 kts | 33° |
| 2026-04-27 13:05 | -34.89526 | -54.91110 | 738 ft | 80 kts | 33° |
| 2026-04-27 13:06 | -34.89255 | -54.90870 | 809 ft | 79 kts | 34° |
| 2026-04-27 13:06 | -34.88794 | -54.90497 | 1066 ft | 81 kts | 35° |
| 2026-04-27 13:07 | -34.88332 | -54.90085 | 1316 ft | 84 kts | 31° |
| 2026-04-27 13:07 | -34.87810 | -54.89652 | 1531 ft | 94 kts | 34° |
| 2026-04-27 13:07 | -34.87239 | -54.89242 | 1792 ft | 100 kts | 24° |
| 2026-04-27 13:07 | -34.86584 | -54.88929 | 2057 ft | 106 kts | 9° |
| 2026-04-27 13:08 | -34.85809 | -54.88780 | 2221 ft | 119 kts | 9° |
| 2026-04-27 13:08 | -34.85413 | -54.88692 | 2299 ft | 126 kts | 9° |
| 2026-04-27 13:14 | -34.84630 | -54.88497 | 2419 ft | 137 kts | 12° |
| 2026-04-27 13:15 | -34.83708 | -54.88220 | 2525 ft | 130 kts | 14° |
| 2026-04-27 13:15 | -34.82859 | -54.87943 | 2525 ft | 121 kts | 14° |
| 2026-04-27 13:15 | -34.82073 | -54.87685 | 2525 ft | 111 kts | 14° |
| 2026-04-27 13:15 | -34.81389 | -54.87462 | 2521 ft | 97 kts | 14° |
| 2026-04-27 13:16 | -34.80774 | -54.87260 | 2518 ft | 87 kts | 14° |
| 2026-04-27 13:16 | -34.80218 | -54.87079 | 2497 ft | 78 kts | 13° |
| 2026-04-27 13:16 | -34.79696 | -54.86917 | 2518 ft | 80 kts | 13° |
| 2026-04-27 13:16 | -34.79129 | -54.86718 | 2535 ft | 89 kts | 14° |
| 2026-04-27 13:17 | -34.78500 | -54.86501 | 2553 ft | 98 kts | 14° |
| 2026-04-27 13:17 | -34.77813 | -54.86271 | 2548 ft | 105 kts | 14° |
| 2026-04-27 13:17 | -34.77092 | -54.86031 | 2549 ft | 110 kts | 14° |
| 2026-04-27 13:17 | -34.76340 | -54.85782 | 2546 ft | 115 kts | 14° |
| 2026-04-27 13:18 | -34.75555 | -54.85522 | 2544 ft | 119 kts | 14° |
| 2026-04-27 13:18 | -34.74755 | -54.85255 | 2543 ft | 117 kts | 14° |
| 2026-04-27 13:18 | -34.74004 | -54.85007 | 2526 ft | 107 kts | 14° |
| 2026-04-27 13:18 | -34.73310 | -54.84780 | 2522 ft | 98 kts | 13° |
| 2026-04-27 13:19 | -34.72681 | -54.84572 | 2496 ft | 92 kts | 13° |
| 2026-04-27 13:19 | -34.72093 | -54.84380 | 2453 ft | 82 kts | 13° |
| 2026-04-27 13:19 | -34.71561 | -54.84207 | 2414 ft | 78 kts | 14° |
| 2026-04-27 13:19 | -34.71009 | -54.84027 | 2418 ft | 87 kts | 15° |
| 2026-04-27 13:20 | -34.70416 | -54.83825 | 2432 ft | 89 kts | 14° |
| 2026-04-27 13:20 | -34.69802 | -54.83619 | 2451 ft | 92 kts | 14° |
| 2026-04-27 13:20 | -34.69175 | -54.83410 | 2465 ft | 95 kts | 14° |
| 2026-04-27 13:20 | -34.68523 | -54.83193 | 2484 ft | 99 kts | 14° |
| 2026-04-27 13:21 | -34.67841 | -54.82967 | 2503 ft | 103 kts | 14° |
| 2026-04-27 13:21 | -34.67135 | -54.82733 | 2519 ft | 107 kts | 14° |
| 2026-04-27 13:21 | -34.66417 | -54.82494 | 2522 ft | 107 kts | 14° |
| 2026-04-27 13:21 | -34.65691 | -54.82255 | 2539 ft | 108 kts | 14° |
| 2026-04-27 13:22 | -34.64964 | -54.82016 | 2544 ft | 108 kts | 14° |
| 2026-04-27 13:22 | -34.64241 | -54.81776 | 2533 ft | 111 kts | 14° |
| 2026-04-27 13:22 | -34.63494 | -54.81530 | 2540 ft | 111 kts | 14° |
| 2026-04-27 13:22 | -34.62744 | -54.81279 | 2542 ft | 112 kts | 14° |
| 2026-04-27 13:23 | -34.61994 | -54.81032 | 2540 ft | 112 kts | 14° |
| 2026-04-27 13:23 | -34.61245 | -54.80784 | 2546 ft | 112 kts | 14° |
| 2026-04-27 13:23 | -34.60489 | -54.80535 | 2541 ft | 113 kts | 14° |
| 2026-04-27 13:23 | -34.59730 | -54.80285 | 2542 ft | 114 kts | 14° |
| 2026-04-27 13:24 | -34.58964 | -54.80031 | 2545 ft | 114 kts | 14° |
| 2026-04-27 13:24 | -34.58200 | -54.79779 | 2538 ft | 113 kts | 14° |
| 2026-04-27 13:24 | -34.57458 | -54.79534 | 2533 ft | 111 kts | 14° |
| 2026-04-27 13:24 | -34.56719 | -54.79290 | 2530 ft | 109 kts | 14° |
| 2026-04-27 13:25 | -34.55983 | -54.79048 | 2532 ft | 111 kts | 14° |
| 2026-04-27 13:25 | -34.55240 | -54.78802 | 2530 ft | 111 kts | 14° |
| 2026-04-27 13:25 | -34.54490 | -54.78553 | 2529 ft | 112 kts | 14° |
| 2026-04-27 13:25 | -34.53744 | -54.78306 | 2527 ft | 111 kts | 14° |
| 2026-04-27 13:26 | -34.53005 | -54.78064 | 2530 ft | 109 kts | 14° |
| 2026-04-27 13:26 | -34.52268 | -54.77821 | 2531 ft | 110 kts | 14° |
| 2026-04-27 13:26 | -34.51533 | -54.77579 | 2534 ft | 110 kts | 14° |
| 2026-04-27 13:26 | -34.50787 | -54.77331 | 2536 ft | 111 kts | 14° |
| 2026-04-27 13:27 | -34.50036 | -54.77085 | 2538 ft | 112 kts | 14° |
| 2026-04-27 13:27 | -34.49284 | -54.76836 | 2539 ft | 111 kts | 14° |
| 2026-04-27 13:27 | -34.48536 | -54.76591 | 2538 ft | 111 kts | 14° |
| 2026-04-27 13:27 | -34.47791 | -54.76345 | 2534 ft | 110 kts | 14° |
| 2026-04-27 13:28 | -34.47054 | -54.76102 | 2534 ft | 110 kts | 14° |
| 2026-04-27 13:28 | -34.46309 | -54.75856 | 2535 ft | 111 kts | 14° |
| 2026-04-27 13:28 | -34.45560 | -54.75610 | 2537 ft | 112 kts | 14° |
| 2026-04-27 13:28 | -34.44806 | -54.75362 | 2538 ft | 112 kts | 14° |
| 2026-04-27 13:29 | -34.44064 | -54.75117 | 2539 ft | 112 kts | 14° |
| 2026-04-27 13:29 | -34.43313 | -54.74869 | 2540 ft | 112 kts | 14° |
| 2026-04-27 13:29 | -34.42563 | -54.74622 | 2537 ft | 112 kts | 14° |
| 2026-04-27 13:29 | -34.41815 | -54.74376 | 2540 ft | 112 kts | 14° |
| 2026-04-27 13:30 | -34.41060 | -54.74128 | 2536 ft | 111 kts | 14° |
| 2026-04-27 13:30 | -34.40318 | -54.73886 | 2535 ft | 110 kts | 14° |
| 2026-04-27 13:30 | -34.39580 | -54.73642 | 2530 ft | 110 kts | 14° |
| 2026-04-27 13:30 | -34.38843 | -54.73400 | 2527 ft | 110 kts | 14° |
| 2026-04-27 13:31 | -34.38099 | -54.73155 | 2527 ft | 111 kts | 14° |
| 2026-04-27 13:31 | -34.37363 | -54.72914 | 2539 ft | 109 kts | 14° |
| 2026-04-27 13:31 | -34.36609 | -54.72665 | 2498 ft | 112 kts | 14° |
| 2026-04-27 13:31 | -34.35862 | -54.72421 | 2502 ft | 111 kts | 14° |
| 2026-04-27 13:32 | -34.35111 | -54.72172 | 2496 ft | 111 kts | 14° |
| 2026-04-27 13:32 | -34.34363 | -54.71925 | 2496 ft | 111 kts | 14° |
| 2026-04-27 13:32 | -34.33622 | -54.71684 | 2493 ft | 109 kts | 14° |
| 2026-04-27 13:32 | -34.32898 | -54.71447 | 2491 ft | 109 kts | 14° |
| 2026-04-27 13:33 | -34.32157 | -54.71203 | 2489 ft | 109 kts | 14° |
| 2026-04-27 13:33 | -34.31428 | -54.70964 | 2486 ft | 108 kts | 14° |
| 2026-04-27 13:33 | -34.30715 | -54.70730 | 2489 ft | 108 kts | 14° |
| 2026-04-27 13:33 | -34.29985 | -54.70491 | 2489 ft | 109 kts | 14° |
| 2026-04-27 13:34 | -34.29247 | -54.70248 | 2489 ft | 110 kts | 14° |
| 2026-04-27 13:34 | -34.28503 | -54.70005 | 2494 ft | 110 kts | 14° |
| 2026-04-27 13:34 | -34.27768 | -54.69763 | 2489 ft | 108 kts | 14° |
| 2026-04-27 13:34 | -34.27038 | -54.69525 | 2488 ft | 109 kts | 14° |
| 2026-04-27 13:35 | -34.26311 | -54.69285 | 2491 ft | 110 kts | 14° |
| 2026-04-27 13:35 | -34.25573 | -54.69043 | 2489 ft | 109 kts | 14° |
| 2026-04-27 13:35 | -34.24846 | -54.68805 | 2486 ft | 108 kts | 14° |
| 2026-04-27 13:35 | -34.24121 | -54.68568 | 2489 ft | 109 kts | 14° |
| 2026-04-27 13:36 | -34.23393 | -54.68330 | 2484 ft | 107 kts | 14° |
| 2026-04-27 13:36 | -34.22687 | -54.68098 | 2485 ft | 105 kts | 14° |
| 2026-04-27 13:36 | -34.21978 | -54.67868 | 2485 ft | 106 kts | 14° |
| 2026-04-27 13:36 | -34.21260 | -54.67632 | 2488 ft | 108 kts | 14° |
| 2026-04-27 13:37 | -34.20524 | -54.67388 | 2493 ft | 111 kts | 14° |
| 2026-04-27 13:37 | -34.19781 | -54.67146 | 2493 ft | 110 kts | 14° |
| 2026-04-27 13:37 | -34.19048 | -54.66906 | 2496 ft | 110 kts | 14° |
| 2026-04-27 13:37 | -34.18303 | -54.66662 | 2497 ft | 111 kts | 14° |
| 2026-04-27 13:38 | -34.17553 | -54.66417 | 2501 ft | 112 kts | 14° |
| 2026-04-27 13:38 | -34.16803 | -54.66171 | 2499 ft | 111 kts | 14° |
| 2026-04-27 13:38 | -34.16057 | -54.65929 | 2499 ft | 110 kts | 14° |
| 2026-04-27 13:38 | -34.15311 | -54.65684 | 2501 ft | 111 kts | 14° |
| 2026-04-27 13:39 | -34.14562 | -54.65438 | 2501 ft | 112 kts | 14° |
| 2026-04-27 13:39 | -34.13810 | -54.65194 | 2499 ft | 112 kts | 14° |
| 2026-04-27 13:39 | -34.13060 | -54.64948 | 2495 ft | 111 kts | 14° |
| 2026-04-27 13:39 | -34.12324 | -54.64708 | 2492 ft | 109 kts | 14° |
| 2026-04-27 13:40 | -34.11591 | -54.64469 | 2492 ft | 110 kts | 14° |
| 2026-04-27 13:40 | -34.10857 | -54.64229 | 2494 ft | 111 kts | 14° |
| 2026-04-27 13:40 | -34.10107 | -54.63985 | 2492 ft | 111 kts | 14° |
| 2026-04-27 13:40 | -34.09361 | -54.63740 | 2495 ft | 111 kts | 14° |
| 2026-04-27 13:41 | -34.08618 | -54.63496 | 2492 ft | 110 kts | 14° |
| 2026-04-27 13:41 | -34.07882 | -54.63259 | 2491 ft | 109 kts | 14° |
| 2026-04-27 13:41 | -34.07148 | -54.63020 | 2491 ft | 109 kts | 14° |
| 2026-04-27 13:41 | -34.06410 | -54.62778 | 2492 ft | 110 kts | 14° |
| 2026-04-27 13:42 | -34.05668 | -54.62535 | 2492 ft | 111 kts | 14° |
| 2026-04-27 13:42 | -34.04927 | -54.62294 | 2489 ft | 110 kts | 14° |
| 2026-04-27 13:42 | -34.04198 | -54.62057 | 2490 ft | 108 kts | 14° |
| 2026-04-27 13:42 | -34.03482 | -54.61823 | 2486 ft | 107 kts | 14° |
| 2026-04-27 13:43 | -34.02759 | -54.61588 | 2486 ft | 109 kts | 14° |
| 2026-04-27 13:43 | -34.02024 | -54.61348 | 2486 ft | 109 kts | 14° |
| 2026-04-27 13:43 | -34.01285 | -54.61107 | 2491 ft | 111 kts | 14° |
| 2026-04-27 13:43 | -34.00538 | -54.60862 | 2490 ft | 110 kts | 14° |
| 2026-04-27 13:44 | -33.99805 | -54.60625 | 2488 ft | 108 kts | 14° |
| 2026-04-27 13:44 | -33.99082 | -54.60390 | 2486 ft | 107 kts | 14° |
| 2026-04-27 13:44 | -33.98356 | -54.60153 | 2487 ft | 109 kts | 14° |
| 2026-04-27 13:44 | -33.97623 | -54.59915 | 2488 ft | 109 kts | 14° |
| 2026-04-27 13:45 | -33.96892 | -54.59677 | 2484 ft | 108 kts | 14° |
| 2026-04-27 13:45 | -33.96162 | -54.59439 | 2488 ft | 109 kts | 14° |
| 2026-04-27 13:45 | -33.95423 | -54.59199 | 2486 ft | 110 kts | 14° |
| 2026-04-27 13:45 | -33.94688 | -54.58960 | 2489 ft | 109 kts | 14° |
| 2026-04-27 13:46 | -33.93953 | -54.58720 | 2490 ft | 110 kts | 14° |
| 2026-04-27 13:46 | -33.93214 | -54.58479 | 2491 ft | 110 kts | 14° |
| 2026-04-27 13:46 | -33.92472 | -54.58238 | 2491 ft | 110 kts | 14° |
| 2026-04-27 13:46 | -33.91734 | -54.58000 | 2492 ft | 110 kts | 14° |
| 2026-04-27 13:47 | -33.90978 | -54.57754 | 2494 ft | 113 kts | 14° |
| 2026-04-27 13:47 | -33.90205 | -54.57503 | 2500 ft | 118 kts | 14° |
| 2026-04-27 13:47 | -33.89414 | -54.57243 | 2500 ft | 120 kts | 14° |
| 2026-04-27 13:47 | -33.88593 | -54.57046 | 2497 ft | 121 kts | 352° |
| 2026-04-27 13:48 | -33.87928 | -54.57610 | 2501 ft | 120 kts | 311° |
| 2026-04-27 13:48 | -33.87350 | -54.58347 | 2501 ft | 121 kts | 313° |
| 2026-04-27 13:48 | -33.86768 | -54.59085 | 2502 ft | 122 kts | 313° |
| 2026-04-27 13:48 | -33.86186 | -54.59831 | 2502 ft | 122 kts | 313° |
| 2026-04-27 13:49 | -33.85600 | -54.60579 | 2501 ft | 123 kts | 313° |
| 2026-04-27 13:49 | -33.85011 | -54.61333 | 2501 ft | 124 kts | 313° |
| 2026-04-27 13:49 | -33.84417 | -54.62090 | 2501 ft | 124 kts | 312° |
| 2026-04-27 13:49 | -33.83821 | -54.62853 | 2501 ft | 126 kts | 312° |
| 2026-04-27 13:50 | -33.83223 | -54.63618 | 2499 ft | 125 kts | 313° |
| 2026-04-27 13:50 | -33.82624 | -54.64383 | 2500 ft | 126 kts | 312° |
| 2026-04-27 13:50 | -33.82023 | -54.65152 | 2500 ft | 126 kts | 313° |
| 2026-04-27 13:50 | -33.81421 | -54.65922 | 2499 ft | 126 kts | 313° |
| 2026-04-27 13:51 | -33.80819 | -54.66693 | 2498 ft | 128 kts | 312° |
| 2026-04-27 13:51 | -33.80217 | -54.67466 | 2497 ft | 126 kts | 312° |
| 2026-04-27 13:51 | -33.79618 | -54.68231 | 2495 ft | 126 kts | 313° |
| 2026-04-27 13:51 | -33.79019 | -54.68998 | 2499 ft | 126 kts | 312° |
| 2026-04-27 13:52 | -33.78423 | -54.69760 | 2499 ft | 127 kts | 312° |
| 2026-04-27 13:52 | -33.77808 | -54.70546 | 2501 ft | 127 kts | 313° |
| 2026-04-27 13:52 | -33.77210 | -54.71310 | 2498 ft | 126 kts | 312° |
| 2026-04-27 13:52 | -33.76610 | -54.72078 | 2497 ft | 126 kts | 312° |
| 2026-04-27 13:53 | -33.75297 | -54.73444 | 2493 ft | 126 kts | 341° |
| 2026-04-27 13:53 | -33.74432 | -54.73598 | 2496 ft | 126 kts | 357° |
| 2026-04-27 13:53 | -33.73547 | -54.73536 | 2497 ft | 128 kts | 8° |
| 2026-04-27 13:54 | -33.72705 | -54.73178 | 2498 ft | 129 kts | 27° |
| 2026-04-27 13:54 | -33.72001 | -54.72505 | 2500 ft | 129 kts | 41° |
| 2026-04-27 13:54 | -33.71370 | -54.71730 | 2501 ft | 131 kts | 49° |
| 2026-04-27 13:54 | -33.70795 | -54.70902 | 2496 ft | 130 kts | 49° |
| 2026-04-27 13:55 | -33.70218 | -54.70076 | 2495 ft | 128 kts | 49° |
| 2026-04-27 13:55 | -33.69647 | -54.69256 | 2492 ft | 128 kts | 49° |
| 2026-04-27 13:55 | -33.69079 | -54.68441 | 2491 ft | 127 kts | 49° |
| 2026-04-27 13:55 | -33.68510 | -54.67625 | 2494 ft | 128 kts | 49° |
| 2026-04-27 13:56 | -33.67877 | -54.66865 | 2495 ft | 128 kts | 40° |
| 2026-04-27 13:56 | -33.67166 | -54.66210 | 2497 ft | 130 kts | 35° |
| 2026-04-27 13:56 | -33.66435 | -54.65583 | 2494 ft | 128 kts | 32° |
| 2026-04-27 13:56 | -33.65681 | -54.65012 | 2493 ft | 130 kts | 31° |
| 2026-04-27 13:57 | -33.64898 | -54.64423 | 2504 ft | 136 kts | 31° |
| 2026-04-27 13:57 | -33.64067 | -54.63811 | 2501 ft | 143 kts | 30° |
| 2026-04-27 13:57 | -33.63191 | -54.63229 | 2499 ft | 145 kts | 27° |
| 2026-04-27 13:57 | -33.62294 | -54.62654 | 2499 ft | 148 kts | 27° |
| 2026-04-27 13:58 | -33.61392 | -54.62085 | 2502 ft | 149 kts | 26° |
| 2026-04-27 13:58 | -33.60464 | -54.61512 | 2499 ft | 151 kts | 26° |
| 2026-04-27 13:58 | -33.59528 | -54.60937 | 2496 ft | 151 kts | 26° |
| 2026-04-27 13:58 | -33.58896 | -54.60549 | 2496 ft | 150 kts | 26° |
| 2026-04-27 13:59 | -33.57666 | -54.59793 | 2496 ft | 150 kts | 26° |
| 2026-04-27 13:59 | -33.57037 | -54.59408 | 2500 ft | 151 kts | 26° |
| 2026-04-27 13:59 | -33.56102 | -54.58837 | 2501 ft | 151 kts | 26° |
| 2026-04-27 13:59 | -33.55166 | -54.58262 | 2501 ft | 151 kts | 26° |
| 2026-04-27 14:00 | -33.54241 | -54.57696 | 2498 ft | 151 kts | 26° |
| 2026-04-27 14:00 | -33.53302 | -54.57122 | 2499 ft | 152 kts | 26° |
| 2026-04-27 14:00 | -33.52358 | -54.56546 | 2496 ft | 152 kts | 26° |
| 2026-04-27 14:00 | -33.51404 | -54.56005 | 2499 ft | 152 kts | 24° |
| 2026-04-27 14:01 | -33.50445 | -54.55468 | 2499 ft | 152 kts | 24° |
| 2026-04-27 14:01 | -33.49534 | -54.54954 | 2490 ft | 137 kts | 24° |
| 2026-04-27 14:01 | -33.48697 | -54.54485 | 2482 ft | 128 kts | 24° |
| 2026-04-27 14:01 | -33.47909 | -54.54043 | 2482 ft | 122 kts | 24° |
| 2026-04-27 14:02 | -33.47150 | -54.53637 | 2478 ft | 117 kts | 21° |
| 2026-04-27 14:02 | -33.46411 | -54.53277 | 2484 ft | 113 kts | 21° |
| 2026-04-27 14:02 | -33.45693 | -54.52927 | 2482 ft | 109 kts | 21° |
| 2026-04-27 14:02 | -33.44994 | -54.52584 | 2479 ft | 108 kts | 21° |
| 2026-04-27 14:03 | -33.44326 | -54.52259 | 2482 ft | 104 kts | 21° |
| 2026-04-27 14:03 | -33.43664 | -54.51939 | 2482 ft | 100 kts | 20° |
| 2026-04-27 14:03 | -33.43015 | -54.51650 | 2484 ft | 99 kts | 19° |
| 2026-04-27 14:03 | -33.42365 | -54.51362 | 2482 ft | 100 kts | 19° |
| 2026-04-27 14:04 | -33.41717 | -54.51074 | 2485 ft | 98 kts | 19° |
| 2026-04-27 14:04 | -33.41078 | -54.50790 | 2483 ft | 98 kts | 19° |
| 2026-04-27 14:04 | -33.40436 | -54.50504 | 2482 ft | 99 kts | 19° |
| 2026-04-27 14:04 | -33.39790 | -54.50217 | 2483 ft | 99 kts | 19° |
| 2026-04-27 14:05 | -33.39145 | -54.49931 | 2479 ft | 98 kts | 19° |
| 2026-04-27 14:05 | -33.38517 | -54.49654 | 2482 ft | 96 kts | 19° |
| 2026-04-27 14:05 | -33.37895 | -54.49377 | 2488 ft | 94 kts | 19° |
| 2026-04-27 14:05 | -33.37276 | -54.49104 | 2483 ft | 93 kts | 19° |
| 2026-04-27 14:06 | -33.36680 | -54.48840 | 2481 ft | 89 kts | 19° |
| 2026-04-27 14:06 | -33.36095 | -54.48580 | 2483 ft | 90 kts | 19° |
| 2026-04-27 14:06 | -33.35502 | -54.48307 | 2486 ft | 92 kts | 21° |
| 2026-04-27 14:06 | -33.34921 | -54.48021 | 2487 ft | 92 kts | 21° |
| 2026-04-27 14:07 | -33.34329 | -54.47732 | 2487 ft | 92 kts | 21° |
| 2026-04-27 14:07 | -33.33734 | -54.47440 | 2490 ft | 93 kts | 21° |
| 2026-04-27 14:07 | -33.33137 | -54.47147 | 2488 ft | 92 kts | 21° |
| 2026-04-27 14:07 | -33.32542 | -54.46855 | 2492 ft | 93 kts | 21° |
| 2026-04-27 14:08 | -33.31941 | -54.46560 | 2490 ft | 93 kts | 21° |
| 2026-04-27 14:08 | -33.31344 | -54.46269 | 2495 ft | 92 kts | 21° |
| 2026-04-27 14:08 | -33.30741 | -54.45973 | 2493 ft | 94 kts | 21° |
| 2026-04-27 14:08 | -33.30143 | -54.45682 | 2491 ft | 92 kts | 21° |
| 2026-04-27 14:09 | -33.29555 | -54.45394 | 2488 ft | 92 kts | 21° |
| 2026-04-27 14:09 | -33.28981 | -54.45113 | 2481 ft | 89 kts | 21° |
| 2026-04-27 14:09 | -33.28374 | -54.44814 | 2334 ft | 102 kts | 21° |
| 2026-04-27 14:09 | -33.27722 | -54.44345 | 2173 ft | 117 kts | 32° |
| 2026-04-27 14:10 | -33.27021 | -54.43773 | 2013 ft | 126 kts | 34° |
| 2026-04-27 14:10 | -33.26291 | -54.43162 | 1846 ft | 130 kts | 34° |
| 2026-04-27 14:10 | -33.25538 | -54.42533 | 1671 ft | 134 kts | 34° |
| 2026-04-27 14:10 | -33.24769 | -54.41892 | 1504 ft | 132 kts | 34° |
| 2026-04-27 14:11 | -33.24032 | -54.41284 | 1498 ft | 126 kts | 34° |
| 2026-04-27 14:11 | -33.23330 | -54.40702 | 1487 ft | 118 kts | 34° |
| 2026-04-27 14:11 | -33.22713 | -54.40186 | 1469 ft | 97 kts | 34° |
| 2026-04-27 14:11 | -33.22348 | -54.39588 | 1413 ft | 85 kts | 56° |
| 2026-04-27 14:12 | -33.22071 | -54.39002 | 1384 ft | 77 kts | 60° |
| 2026-04-27 14:12 | -33.21807 | -54.38432 | 1363 ft | 87 kts | 62° |
| 2026-04-27 14:12 | -33.21594 | -54.37717 | 1379 ft | 95 kts | 76° |
| 2026-04-27 14:12 | -33.21473 | -54.36928 | 1330 ft | 97 kts | 84° |
| 2026-04-27 14:13 | -33.21443 | -54.36153 | 1361 ft | 91 kts | 87° |
| 2026-04-27 14:13 | -33.21405 | -54.35391 | 1337 ft | 92 kts | 84° |
| 2026-04-27 14:13 | -33.21361 | -54.34633 | 1359 ft | 88 kts | 87° |
| 2026-04-27 14:13 | -33.21289 | -54.33916 | 1374 ft | 85 kts | 81° |
| 2026-04-27 14:14 | -33.21281 | -54.33858 | 1373 ft | 85 kts | 80° |
| 2026-04-27 14:14 | -33.21132 | -54.33298 | 1429 ft | 81 kts | 56° |
| 2026-04-27 14:14 | -33.20691 | -54.32877 | 1452 ft | 85 kts | 23° |
| 2026-04-27 14:14 | -33.20130 | -54.32612 | 1484 ft | 86 kts | 11° |
| 2026-04-27 14:15 | -33.19512 | -54.32540 | 1505 ft | 87 kts | 357° |
| 2026-04-27 14:15 | -33.18907 | -54.32642 | 1509 ft | 94 kts | 349° |
| 2026-04-27 14:15 | -33.18207 | -54.32747 | 1424 ft | 104 kts | 354° |
| 2026-04-27 14:15 | -33.17474 | -54.32844 | 1353 ft | 106 kts | 349° |
| 2026-04-27 14:16 | -33.16816 | -54.33125 | 1387 ft | 99 kts | 315° |
| 2026-04-27 14:16 | -33.16573 | -54.33863 | 1395 ft | 94 kts | 269° |
| 2026-04-27 14:16 | -33.16771 | -54.34632 | 1216 ft | 97 kts | 224° |
| 2026-04-27 14:16 | -33.17385 | -54.34850 | 903 ft | 93 kts | 181° |
| 2026-04-27 14:17 | -33.18015 | -54.34822 | 631 ft | 87 kts | 181° |
| 2026-04-27 14:17 | -33.18573 | -54.34800 | 403 ft | 71 kts | 175° |
| 2026-04-27 14:17 | -33.19041 | -54.34757 | 241 ft | 67 kts | 175° |
| 2026-04-27 14:17 | -33.19526 | -54.34711 | 211 ft | 69 kts | 178° |
| 2026-04-27 14:18 | -33.19882 | -54.34692 | 206 ft | 35 kts | 175° |
| 2026-04-27 14:18 | -33.20001 | -54.34685 | 208 ft | 13 kts | 197° |
| 2026-04-27 14:18 | -33.20069 | -54.34758 | 198 ft | 11 kts | 262° |
| 2026-04-27 14:18 | -33.20064 | -54.34803 | 201 ft | 0 kts | 353° |